Airport View

Enter AWOS ICAO identifier for current METAR.

ex. KFNL

KASN 251335Z AUTO 21003KT 10SM OVC009 21/20 A2998 RMK AO2 T02050200

25 Sep 2020 14:10

Frequency: 118.425

Phone: 256-362-5847

Other Area AWOS: KANB - KPLR - KGAD - KSCD

TAF KASN 251121Z 2512/2612 VRB03KT 6SM BR OVC008 FM251500 22005KT P6SM VCSH OVC005 FM251900 24007KT P6SM VCSH BKN019 FM252100 25006KT P6SM BKN025 FM260900 00000KT 2SM BR BKN011 FM261100 00000KT 2SM BR BKN004